Time;durP1;ratioP1;P1;durP2;ratioP2;P2;SDS_P1;SDS_P2;PMS_P1;PMS_P2;Temp;Humidity;BMP_temperature;BMP_pressure;BME280_temperature;BME280_humidity;BME280_pressure;Samples;Min_cycle;Max_cycle;Signal;HPM_P1;HPM_P2
2022/05/13 00:01:07;;;;;;;13.40;5.90;;;;;;;13.04;65.05;97318.73;1571121;89;25960;-74
2022/05/13 00:03:34;;;;;;;9.13;5.35;;;;;;;12.98;65.25;97315.03;1633284;86;27468;-74
2022/05/13 00:06:02;;;;;;;10.18;5.55;;;;;;;12.76;65.33;97292.20;1597274;89;25759;-74
2022/05/13 00:08:29;;;;;;;9.10;5.03;;;;;;;12.86;65.56;97310.09;1633295;87;25801;-74
2022/05/13 00:10:58;;;;;;;10.45;5.30;;;;;;;12.87;65.56;97306.33;1597807;88;26153;-74
2022/05/13 00:13:24;;;;;;;10.28;5.53;;;;;;;12.79;65.48;97305.30;1633584;86;25700;-76
2022/05/13 00:15:52;;;;;;;13.08;5.72;;;;;;;12.70;65.70;97314.23;1596021;87;27365;-74
2022/05/13 00:18:19;;;;;;;11.80;4.87;;;;;;;12.69;65.80;97306.33;1592411;89;25726;-75
2022/05/13 00:20:46;;;;;;;11.20;5.40;;;;;;;12.65;65.68;97302.45;1590663;90;26019;-75
2022/05/13 00:23:13;;;;;;;8.30;5.08;;;;;;;12.58;65.64;97300.63;1590738;89;25943;-74
2022/05/13 00:25:41;;;;;;;9.68;5.50;;;;;;;12.54;65.73;97296.74;1590823;90;25789;-74
2022/05/13 00:28:10;;;;;;;10.30;4.97;;;;;;;12.48;65.78;97300.34;1590792;90;27488;-75
2022/05/13 00:30:40;;;;;;;9.08;4.97;;;;;;;12.43;65.89;97300.73;1590497;90;25845;-74
2022/05/13 00:33:09;;;;;;;7.90;4.97;;;;;;;12.39;65.99;97292.75;1590731;90;25775;-74
2022/05/13 00:35:38;;;;;;;9.70;4.95;;;;;;;12.35;66.05;97293.72;1590766;90;26100;-74
2022/05/13 00:38:07;;;;;;;10.38;5.37;;;;;;;12.30;66.06;97288.17;1590744;90;25729;-74
2022/05/13 00:40:35;;;;;;;13.15;5.75;;;;;;;12.27;66.07;97295.37;1590656;90;27398;-74
2022/05/13 00:43:07;;;;;;;8.30;4.95;;;;;;;12.20;66.00;97286.48;1590601;90;25677;-75
2022/05/13 00:45:37;;;;;;;10.72;5.53;;;;;;;12.13;66.01;97278.97;1597756;89;26560;-75
2022/05/13 00:48:04;;;;;;;10.95;5.10;;;;;;;12.07;66.20;97281.23;1605726;88;26031;-74
2022/05/13 00:50:35;;;;;;;11.12;5.00;;;;;;;12.09;66.25;97280.46;1605865;89;25909;-75
2022/05/13 00:53:02;;;;;;;10.38;3.90;;;;;;;12.09;66.22;97280.46;1605806;89;27018;-74
2022/05/13 00:55:39;;;;;;;7.62;4.95;;;;;;;12.05;66.19;97281.45;1605751;89;25913;-74
2022/05/13 00:58:10;;;;;;;6.90;4.53;;;;;;;12.02;66.18;97291.36;1552778;91;26025;-74
2022/05/13 01:00:37;;;;;;;7.70;4.85;;;;;;;11.97;66.09;97291.72;1583518;89;26071;-75
2022/05/13 01:03:06;;;;;;;11.65;5.05;;;;;;;11.89;66.23;97286.08;1590360;90;25752;-75
2022/05/13 01:05:35;;;;;;;13.22;5.12;;;;;;;11.88;66.30;97287.95;1590275;90;28097;-74
2022/05/13 01:08:06;;;;;;;10.40;5.60;;;;;;;11.85;66.37;97292.45;1590189;90;25749;-75
2022/05/13 01:10:33;;;;;;;10.98;5.67;;;;;;;11.81;66.44;97299.37;1593700;88;25768;-75
2022/05/13 01:13:06;;;;;;;9.68;5.50;;;;;;;11.76;66.56;97297.84;1590214;90;26078;-74
2022/05/13 01:15:36;;;;;;;10.03;5.35;;;;;;;11.59;66.50;97306.19;1590242;90;25362;-75
2022/05/13 01:18:06;;;;;;;7.70;5.58;;;;;;;11.50;66.96;97301.55;1590285;90;27398;-74
2022/05/13 01:20:46;;;;;;;8.25;5.78;;;;;;;11.57;67.10;97297.98;1590312;90;25487;-74
2022/05/13 01:23:26;;;;;;;10.72;5.92;;;;;;;11.60;67.11;97293.47;1590283;89;25290;-75
2022/05/13 01:25:58;;;;;;;12.53;5.65;;;;;;;11.54;67.20;97297.89;1587444;90;26673;-73
2022/05/13 01:28:49;;;;;;;10.23;5.75;;;;;;;11.40;67.24;97301.73;1590685;90;25443;-74
2022/05/13 01:31:33;;;;;;;12.07;4.95;;;;;;;11.23;67.31;97291.97;1587546;90;27516;-74
2022/05/13 01:34:04;;;;;;;7.15;4.53;;;;;;;11.21;67.39;97286.50;1590420;90;25788;-75
2022/05/13 01:36:31;;;;;;;11.73;5.60;;;;;;;11.06;67.37;97280.87;1532109;90;25852;-75
2022/05/13 01:38:58;;;;;;;8.45;5.60;;;;;;;10.94;67.52;97281.78;1552611;91;26889;-74
2022/05/13 01:41:25;;;;;;;12.58;5.20;;;;;;;10.89;67.76;97279.72;1552666;92;26550;-73
2022/05/13 01:43:53;;;;;;;11.73;5.08;;;;;;;10.96;67.79;97281.88;1552569;92;27410;-73
2022/05/13 01:46:22;;;;;;;13.35;5.37;;;;;;;10.89;67.58;97274.31;1614492;88;25660;-74
2022/05/13 01:48:50;;;;;;;8.75;4.70;;;;;;;10.86;67.67;97272.07;1618402;88;25782;-75
2022/05/13 01:51:17;;;;;;;11.97;4.75;;;;;;;10.85;67.68;97265.02;1618606;88;26005;-74
2022/05/13 01:53:44;;;;;;;9.83;4.80;;;;;;;10.85;67.71;97271.77;1618392;88;25718;-74
2022/05/13 01:56:11;;;;;;;7.22;4.28;;;;;;;10.85;67.69;97277.69;1618433;88;28548;-74
2022/05/13 01:58:38;;;;;;;9.33;4.08;;;;;;;10.83;67.72;97267.09;1618423;88;25890;-74
2022/05/13 02:01:07;;;;;;;7.80;4.95;;;;;;;10.81;67.72;97274.05;1618480;88;26738;-74
2022/05/13 02:03:44;;;;;;;10.88;4.55;;;;;;;10.81;67.69;97278.63;1618368;88;26801;-75
2022/05/13 02:06:15;;;;;;;14.87;5.00;;;;;;;10.75;67.66;97276.77;1618472;88;26567;-73
2022/05/13 02:08:42;;;;;;;7.45;4.50;;;;;;;10.72;67.80;97275.88;1538618;93;28177;-74
2022/05/13 02:11:10;;;;;;;9.20;5.00;;;;;;;10.70;67.91;97280.66;1541287;93;25731;-74
2022/05/13 02:13:37;;;;;;;9.18;4.70;;;;;;;10.69;67.94;97269.55;1541421;93;25370;-74
2022/05/13 02:16:04;;;;;;;11.15;5.00;;;;;;;10.69;67.98;97266.85;1541347;93;26011;-74
2022/05/13 02:18:31;;;;;;;8.58;4.70;;;;;;;10.67;67.96;97258.97;1541331;93;26007;-74
2022/05/13 02:20:58;;;;;;;9.68;4.85;;;;;;;10.66;68.00;97262.70;1541288;93;27440;-73
2022/05/13 02:23:25;;;;;;;9.88;4.80;;;;;;;10.60;68.08;97256.83;1541502;93;25781;-74
2022/05/13 02:25:56;;;;;;;7.72;5.10;;;;;;;10.57;68.18;97261.83;1541379;93;25902;-75
2022/05/13 02:28:23;;;;;;;9.05;5.03;;;;;;;10.50;68.13;97266.44;1538843;93;26165;-74
2022/05/13 02:30:50;;;;;;;11.05;5.10;;;;;;;10.44;68.39;97266.23;1541447;93;25703;-74
2022/05/13 02:33:16;;;;;;;8.65;5.00;;;;;;;10.42;68.49;97262.91;1552548;91;28269;-75
2022/05/13 02:35:43;;;;;;;9.30;5.30;;;;;;;10.43;68.59;97259.70;1549031;91;25916;-74
2022/05/13 02:38:15;;;;;;;9.85;5.55;;;;;;;10.43;68.60;97256.48;1543104;92;25819;-74
2022/05/13 02:43:29;;;;;;;11.80;5.00;;;;;;;10.43;68.93;97261.88;1543094;92;25927;-74
2022/05/13 02:45:56;;;;;;;11.43;5.50;;;;;;;10.44;69.08;97254.09;1542674;92;27424;-75
2022/05/13 02:48:22;;;;;;;9.78;4.65;;;;;;;10.49;69.00;97253.98;1542997;92;25830;-75
2022/05/13 02:50:49;;;;;;;8.63;4.58;;;;;;;10.52;68.99;97253.53;1543214;92;25795;-75
2022/05/13 02:53:16;;;;;;;12.80;5.42;;;;;;;10.53;69.01;97253.31;1543099;92;26719;-74
2022/05/13 02:55:42;;;;;;;8.25;4.75;;;;;;;10.54;68.98;97254.15;1543063;92;25763;-74
2022/05/13 02:58:09;;;;;;;11.83;5.03;;;;;;;10.56;68.94;97260.16;1543024;92;27456;-75
2022/05/13 03:00:36;;;;;;;11.48;4.30;;;;;;;10.54;69.08;97251.45;1543141;92;25976;-74
2022/05/13 03:03:04;;;;;;;8.05;4.62;;;;;;;10.57;69.23;97247.81;1543109;92;25789;-74
2022/05/13 03:05:31;;;;;;;8.75;4.33;;;;;;;10.58;69.18;97248.64;1578692;88;26047;-74
2022/05/13 03:08:00;;;;;;;9.45;4.37;;;;;;;10.60;69.17;97250.60;1611951;89;25789;-74
2022/05/13 03:10:26;;;;;;;6.60;4.35;;;;;;;10.63;69.18;97251.50;1616102;88;27472;-74
2022/05/13 03:12:52;;;;;;;10.30;4.90;;;;;;;10.65;69.16;97257.52;1619106;88;25269;-75
2022/05/13 03:15:19;;;;;;;19.90;4.65;;;;;;;10.67;69.18;97265.72;1619031;88;25694;-74
2022/05/13 03:17:45;;;;;;;8.85;4.60;;;;;;;10.59;69.14;97259.22;1619195;87;26787;-74
2022/05/13 03:20:17;;;;;;;13.08;5.30;;;;;;;10.57;69.31;97267.22;1619004;88;25687;-74
2022/05/13 03:22:45;;;;;;;11.33;4.87;;;;;;;10.58;69.43;97266.18;1619125;88;27499;-74
2022/05/13 03:25:12;;;;;;;7.37;4.55;;;;;;;10.61;69.51;97263.89;1618996;88;25743;-74
2022/05/13 03:27:41;;;;;;;14.15;5.15;;;;;;;10.64;69.51;97262.09;1619079;88;25718;-75
2022/05/13 03:30:13;;;;;;;10.25;5.53;;;;;;;10.67;69.52;97259.48;1618872;88;25962;-73
2022/05/13 03:32:40;;;;;;;9.48;4.95;;;;;;;10.69;69.59;97256.05;1618987;88;25737;-74
2022/05/13 03:35:10;;;;;;;10.18;4.80;;;;;;;10.72;69.69;97244.31;1618923;88;27399;-74
2022/05/13 03:37:37;;;;;;;9.48;5.55;;;;;;;10.74;69.78;97243.58;1619043;88;25884;-73
2022/05/13 03:40:05;;;;;;;10.82;5.62;;;;;;;10.77;69.67;97238.24;1618988;88;25802;-75
2022/05/13 03:42:31;;;;;;;9.88;5.30;;;;;;;10.79;69.68;97244.27;1619052;88;25994;-74
2022/05/13 03:44:58;;;;;;;9.00;4.42;;;;;;;10.80;69.61;97241.87;1618654;88;25660;-74
2022/05/13 03:47:24;;;;;;;9.70;4.97;;;;;;;10.83;69.58;97244.14;1617246;88;27671;-73
2022/05/13 03:49:51;;;;;;;11.38;4.92;;;;;;;10.82;69.54;97241.97;1647137;86;25729;-74
2022/05/13 03:52:18;;;;;;;10.45;4.95;;;;;;;10.87;69.51;97243.20;1646879;87;25794;-75
2022/05/13 03:54:44;;;;;;;7.45;4.97;;;;;;;10.87;69.62;97246.69;1617650;87;25992;-74
2022/05/13 03:57:11;;;;;;;13.93;5.08;;;;;;;10.90;69.84;97244.09;1617320;87;25679;-74
2022/05/13 03:59:37;;;;;;;11.50;5.50;;;;;;;10.94;70.00;97248.84;1616681;88;27363;-74
2022/05/13 04:02:04;;;;;;;9.10;5.35;;;;;;;10.89;69.93;97251.36;1616759;88;25739;-74
2022/05/13 04:08:56;;;;;;;10.20;5.70;;;;;;;10.90;70.09;97246.79;1617655;87;25703;-74
2022/05/13 04:09:44;;;;;;;11.73;5.90;;;;;;;10.92;70.13;97249.58;1616990;88;25869;-74
2022/05/13 04:17:41;;;;;;;10.43;5.55;;;;;;;10.98;70.25;97251.95;1617221;87;25769;-73
2022/05/13 04:20:09;;;;;;;15.28;5.28;;;;;;;11.04;70.35;97249.20;1616982;88;26027;-74
2022/05/13 04:22:36;;;;;;;11.25;5.22;;;;;;;11.04;70.39;97251.06;1617288;87;25747;-74
2022/05/13 04:25:03;;;;;;;10.15;5.67;;;;;;;11.02;70.32;97251.28;1617162;87;27427;-74
2022/05/13 04:27:30;;;;;;;12.23;5.45;;;;;;;11.04;70.29;97257.82;1617119;87;25739;-73
2022/05/13 04:29:56;;;;;;;14.33;6.03;;;;;;;11.10;70.29;97256.97;1616983;87;25735;-74
2022/05/13 04:32:23;;;;;;;16.77;5.67;;;;;;;11.15;70.30;97253.90;1616898;88;27027;-73
2022/05/13 04:34:51;;;;;;;9.18;5.58;;;;;;;11.15;70.40;97255.25;1616627;88;25450;-74
2022/05/13 04:37:17;;;;;;;9.08;5.62;;;;;;;11.16;70.37;97250.16;1616911;88;27320;-74
2022/05/13 04:39:44;;;;;;;10.98;6.30;;;;;;;11.16;70.43;97256.08;1616853;88;25218;-73
2022/05/13 04:44:57;;;;;;;16.20;6.60;;;;;;;11.24;70.55;97259.02;1636268;86;26027;-74
2022/05/13 04:50:09;;;;;;;11.88;7.25;;;;;;;11.34;70.54;97267.50;1668007;85;27433;-74
2022/05/13 04:52:36;;;;;;;19.15;7.72;;;;;;;11.38;70.48;97275.45;1666571;85;25489;-74
2022/05/13 04:55:03;;;;;;;17.07;7.22;;;;;;;11.43;70.48;97285.92;1671025;85;25723;-75
2022/05/13 04:57:30;;;;;;;14.80;7.70;;;;;;;11.46;70.60;97279.25;1658895;86;25986;-74
2022/05/13 04:59:57;;;;;;;19.50;7.65;;;;;;;11.41;70.81;97281.77;1667863;85;25826;-74
2022/05/13 05:02:23;;;;;;;14.35;7.45;;;;;;;11.37;70.80;97280.02;1668196;85;27477;-73
2022/05/13 05:04:50;;;;;;;14.60;8.23;;;;;;;11.39;70.88;97273.05;1661697;85;25764;-74
2022/05/13 05:07:16;;;;;;;18.20;8.63;;;;;;;11.43;70.80;97273.76;1677659;85;25812;-75
2022/05/13 05:09:43;;;;;;;14.18;7.95;;;;;;;11.49;70.67;97270.68;1673261;85;26043;-73
2022/05/13 05:12:10;;;;;;;19.25;7.85;;;;;;;11.55;70.61;97275.22;1670835;85;25809;-74
2022/05/13 05:14:37;;;;;;;17.20;8.35;;;;;;;11.60;70.52;97275.38;1660069;84;27364;-74
2022/05/13 05:17:05;;;;;;;11.25;7.47;;;;;;;11.68;70.46;97287.28;1677428;85;25559;-73
2022/05/13 05:19:33;;;;;;;17.50;9.10;;;;;;;11.73;70.43;97284.72;1673305;85;25842;-75
2022/05/13 05:21:59;;;;;;;18.85;10.30;;;;;;;11.78;70.48;97280.05;1671654;85;26192;-74
2022/05/13 05:24:26;;;;;;;19.37;9.98;;;;;;;11.78;70.58;97276.81;1657384;86;25701;-73
2022/05/13 05:26:52;;;;;;;17.40;10.85;;;;;;;11.80;70.54;97274.72;1648492;87;27379;-74
2022/05/13 05:29:22;;;;;;;19.65;12.25;;;;;;;11.81;70.64;97283.14;1648636;87;25669;-73
2022/05/13 05:31:48;;;;;;;17.02;11.22;;;;;;;11.79;70.64;97275.77;1648615;87;25784;-74
2022/05/13 05:34:17;;;;;;;20.27;11.90;;;;;;;11.77;70.72;97277.86;1619061;87;25976;-73
2022/05/13 05:36:44;;;;;;;18.42;11.93;;;;;;;11.78;70.88;97274.11;1618914;88;25763;-74
2022/05/13 05:39:11;;;;;;;16.87;11.85;;;;;;;11.83;70.77;97277.52;1618893;88;27380;-75
2022/05/13 05:41:38;;;;;;;24.92;13.08;;;;;;;11.89;70.83;97282.84;1618814;88;26419;-74
2022/05/13 05:44:04;;;;;;;17.27;12.30;;;;;;;11.90;70.85;97277.75;1619028;88;25722;-74
2022/05/13 05:46:31;;;;;;;22.80;12.25;;;;;;;11.98;70.93;97276.62;1623169;87;26654;-75
2022/05/13 05:48:58;;;;;;;15.58;11.20;;;;;;;12.05;70.94;97281.45;1626422;88;25996;-74
2022/05/13 05:51:24;;;;;;;18.70;11.85;;;;;;;12.09;70.85;97277.23;1626472;88;28217;-74
2022/05/13 05:59:20;;;;;;;16.70;9.93;;;;;;;12.20;70.82;97290.54;1626384;88;26831;-73
2022/05/13 06:01:47;;;;;;;18.32;9.75;;;;;;;12.25;70.76;97294.77;1626464;88;25784;-74
2022/05/13 06:04:14;;;;;;;19.60;9.78;;;;;;;12.32;70.47;97299.57;1626588;88;27388;-74
2022/05/13 06:06:40;;;;;;;19.20;9.85;;;;;;;12.36;70.24;97295.37;1626510;88;25878;-73
2022/05/13 06:09:08;;;;;;;17.65;10.00;;;;;;;12.39;70.13;97300.87;1626686;88;25671;-75
2022/05/13 06:11:34;;;;;;;18.45;9.80;;;;;;;12.45;70.09;97304.84;1626471;88;25999;-74
2022/05/13 06:14:01;;;;;;;13.20;8.03;;;;;;;12.53;69.95;97312.69;1626801;88;25477;-73
2022/05/13 06:16:29;;;;;;;19.48;9.10;;;;;;;12.61;69.95;97314.25;1626737;88;27354;-74
2022/05/13 06:21:27;;;;;;;16.23;8.95;;;;;;;12.78;69.91;97302.28;1545092;92;25784;-73
2022/05/13 06:23:54;;;;;;;11.75;8.03;;;;;;;12.90;70.01;97303.17;1545148;92;25962;-73
2022/05/13 06:28:50;;;;;;;18.87;10.78;;;;;;;13.12;69.56;97293.48;1485196;96;28195;-74
2022/05/13 06:31:18;;;;;;;20.55;10.43;;;;;;;13.21;69.52;97301.61;1485151;96;25813;-74
2022/05/13 06:33:46;;;;;;;18.30;10.90;;;;;;;13.32;69.47;97293.22;1485238;96;26015;-75
2022/05/13 06:36:13;;;;;;;18.65;10.65;;;;;;;13.44;69.46;97281.05;1484933;96;26014;-74
2022/05/13 06:38:40;;;;;;;23.25;10.72;;;;;;;13.55;69.19;97281.59;1484785;96;25869;-74
2022/05/13 06:41:06;;;;;;;19.98;11.53;;;;;;;13.67;69.06;97289.22;1484816;96;28326;-74
2022/05/13 06:43:33;;;;;;;18.15;11.12;;;;;;;13.78;68.90;97279.44;1484729;96;25927;-74
2022/05/13 06:45:59;;;;;;;15.25;10.18;;;;;;;13.87;68.65;97280.23;1483530;95;26012;-74
2022/05/13 06:48:26;;;;;;;22.15;11.50;;;;;;;13.97;68.73;97279.12;1474942;96;26817;-74
2022/05/13 06:50:53;;;;;;;20.40;10.90;;;;;;;14.08;68.84;97265.78;1474874;95;25985;-74
2022/05/13 06:53:22;;;;;;;15.08;11.10;;;;;;;14.17;68.84;97260.28;1482871;96;27435;-74
2022/05/13 06:55:50;;;;;;;19.50;11.10;;;;;;;14.28;68.64;97266.22;1475395;95;26203;-73
2022/05/13 06:58:17;;;;;;;26.40;10.98;;;;;;;14.37;68.60;97270.22;1474861;96;25954;-75
2022/05/13 07:00:44;;;;;;;21.35;9.63;;;;;;;14.44;68.29;97269.61;1474465;96;26156;-74
2022/05/13 07:03:16;;;;;;;17.82;9.98;;;;;;;14.53;68.10;97273.59;1499039;95;25920;-74
2022/05/13 07:05:44;;;;;;;21.45;9.28;;;;;;;14.63;68.04;97268.37;1499434;94;27463;-74
2022/05/13 07:08:12;;;;;;;18.57;9.30;;;;;;;14.71;67.76;97266.66;1499728;94;25773;-74
2022/05/13 07:10:40;;;;;;;20.08;9.45;;;;;;;14.83;67.51;97272.05;1499963;94;25874;-75
2022/05/13 07:13:11;;;;;;;14.95;6.85;;;;;;;14.93;67.24;97264.09;1499656;94;26992;-74
2022/05/13 07:15:37;;;;;;;12.70;6.50;;;;;;;15.08;67.19;97259.48;1477773;96;25840;-75
2022/05/13 07:18:04;;;;;;;14.65;6.78;;;;;;;15.26;67.15;97261.16;1487853;95;28124;-74
2022/05/13 07:20:31;;;;;;;11.95;5.90;;;;;;;15.41;67.03;97255.46;1505427;94;25952;-74
2022/05/13 07:22:58;;;;;;;11.33;4.53;;;;;;;15.54;66.70;97257.05;1505262;95;25877;-75
2022/05/13 07:25:26;;;;;;;12.63;4.45;;;;;;;15.70;66.24;97248.61;1519545;92;26768;-75
2022/05/13 07:27:53;;;;;;;8.43;3.80;;;;;;;15.87;65.99;97248.08;1571359;90;25932;-75
2022/05/13 07:30:20;;;;;;;11.63;4.30;;;;;;;16.08;65.88;97241.03;1571455;91;28080;-75
2022/05/13 07:32:46;;;;;;;6.85;4.30;;;;;;;16.27;65.51;97242.95;1571116;91;25322;-75
2022/05/13 07:35:13;;;;;;;8.05;3.75;;;;;;;16.44;64.85;97246.43;1571504;91;25797;-74
2022/05/13 07:37:39;;;;;;;8.83;5.35;;;;;;;16.57;64.56;97240.08;1571546;91;25978;-74
2022/05/13 07:42:52;;;;;;;9.70;5.35;;;;;;;16.93;64.22;97230.45;1544489;92;27460;-74
2022/05/13 07:45:19;;;;;;;8.93;4.90;;;;;;;17.39;64.12;97229.53;1530065;93;25746;-75
2022/05/13 07:47:46;;;;;;;14.05;6.10;;;;;;;17.68;63.39;97223.81;1529756;93;25873;-76
2022/05/13 07:50:14;;;;;;;11.57;5.03;;;;;;;17.92;63.36;97229.19;1529764;93;26475;-74
2022/05/13 07:52:41;;;;;;;11.80;5.65;;;;;;;18.18;63.03;97224.72;1529734;93;25758;-75
2022/05/13 07:55:10;;;;;;;11.78;6.20;;;;;;;18.40;62.49;97225.93;1529894;93;27733;-75
2022/05/13 07:57:42;;;;;;;14.05;6.17;;;;;;;18.59;61.83;97232.09;1543435;92;25958;-76
2022/05/13 08:03:04;;;;;;;12.68;5.47;;;;;;;18.96;61.23;97234.66;1570595;90;26821;-75
2022/05/13 08:05:40;;;;;;;14.20;5.08;;;;;;;19.20;60.91;97232.84;1485108;94;26055;-75
2022/05/13 08:08:12;;;;;;;14.47;5.17;;;;;;;19.41;60.41;97227.66;1499113;95;27483;-74
2022/05/13 08:10:41;;;;;;;12.85;4.87;;;;;;;19.58;60.07;97209.63;1480913;96;25803;-74
2022/05/13 08:13:07;;;;;;;11.57;5.25;;;;;;;19.69;59.98;97201.13;1489624;95;25792;-75
2022/05/13 08:15:34;;;;;;;9.28;5.72;;;;;;;19.82;59.72;97196.20;1475391;96;26007;-77
2022/05/13 08:18:01;;;;;;;10.88;5.20;;;;;;;19.88;59.70;97197.30;1497578;94;25606;-75
2022/05/13 08:20:28;;;;;;;7.65;4.47;;;;;;;20.01;59.28;97192.62;1513278;94;27475;-77
2022/05/13 08:22:55;;;;;;;9.63;5.12;;;;;;;20.06;59.07;97189.86;1512049;94;25991;-74
2022/05/13 08:25:21;;;;;;;10.98;4.90;;;;;;;20.14;58.68;97187.95;1512488;94;25795;-74
2022/05/13 08:27:48;;;;;;;9.80;5.03;;;;;;;20.18;58.39;97182.70;1512539;94;26216;-75
2022/05/13 08:30:15;;;;;;;11.55;4.72;;;;;;;20.18;58.08;97182.70;1512374;94;25346;-74
2022/05/13 08:32:42;;;;;;;11.60;4.90;;;;;;;20.21;57.70;97189.02;1512433;94;27399;-74
2022/05/13 08:35:10;;;;;;;7.47;4.83;;;;;;;20.23;57.71;97190.93;1512412;94;25798;-75
2022/05/13 08:37:45;;;;;;;8.78;4.97;;;;;;;20.22;57.43;97192.03;1512515;94;25852;-77
2022/05/13 08:40:55;;;;;;;18.02;5.92;;;;;;;20.21;57.61;97183.53;1512453;94;26011;-75
2022/05/13 08:43:26;;;;;;;16.15;5.47;;;;;;;20.19;57.77;97190.38;1512307;94;25958;-77
2022/05/13 08:46:20;;;;;;;15.17;5.53;;;;;;;20.20;58.03;97187.37;1512725;94;27470;-76
2022/05/13 08:49:22;;;;;;;9.65;5.60;;;;;;;20.21;57.93;97195.86;1510370;94;25810;-74
2022/05/13 08:55:09;;;;;;;13.85;6.10;;;;;;;20.13;58.11;97191.78;1512460;94;26101;-76
2022/05/13 08:57:43;;;;;;;14.90;6.75;;;;;;;20.13;57.99;97180.82;1512237;94;25908;-74
2022/05/13 09:00:21;;;;;;;16.10;6.35;;;;;;;20.16;57.96;97179.45;1528994;93;28311;-78
2022/05/13 09:02:53;;;;;;;9.03;5.83;;;;;;;20.18;58.03;97184.08;1524955;92;25867;-76
2022/05/13 09:05:34;;;;;;;9.50;5.92;;;;;;;20.18;58.03;97177.23;1519742;94;25771;-76
2022/05/13 09:08:01;;;;;;;10.20;5.65;;;;;;;20.18;58.31;97177.78;1564348;89;27140;-75
2022/05/13 09:10:28;;;;;;;12.33;5.33;;;;;;;20.17;58.48;97172.02;1630573;87;25743;-76
2022/05/13 09:13:21;;;;;;;5.80;4.65;;;;;;;20.16;58.14;97178.08;1630091;87;27388;-76
2022/05/13 09:15:55;;;;;;;9.75;5.00;;;;;;;20.12;58.07;97172.87;1601165;89;25855;-74
2022/05/13 09:18:38;;;;;;;6.53;4.97;;;;;;;20.23;58.36;97172.30;1603333;89;25779;-77
2022/05/13 09:21:19;;;;;;;9.45;5.40;;;;;;;20.46;58.13;97171.15;1602682;89;26505;-77
2022/05/13 09:23:46;;;;;;;9.15;5.83;;;;;;;20.66;57.51;97177.08;1602738;89;25865;-75
2022/05/13 09:26:20;;;;;;;9.65;5.25;;;;;;;20.81;57.39;97167.42;1603448;89;28348;-76
2022/05/13 09:29:04;;;;;;;14.25;6.05;;;;;;;20.90;56.91;97167.64;1603409;89;25835;-76
2022/05/13 09:31:35;;;;;;;13.25;5.58;;;;;;;20.92;56.74;97165.44;1558910;91;25760;-75
2022/05/13 09:34:01;;;;;;;11.73;5.58;;;;;;;20.82;56.82;97167.69;1565667;91;26733;-76
2022/05/13 09:36:33;;;;;;;8.08;4.97;;;;;;;20.82;57.26;97163.58;1547266;91;25387;-78
2022/05/13 09:39:19;;;;;;;11.48;4.70;;;;;;;20.77;56.83;97162.80;1549590;92;28141;-76
2022/05/13 09:41:48;;;;;;;12.37;5.35;;;;;;;20.71;56.79;97162.54;1522108;92;25829;-78
2022/05/13 09:44:23;;;;;;;8.00;4.30;;;;;;;20.63;56.82;97159.84;1518942;93;26002;-76
2022/05/13 09:47:28;;;;;;;8.25;4.87;;;;;;;20.56;56.66;97159.86;1520430;93;26065;-76
2022/05/13 09:49:55;;;;;;;11.83;4.58;;;;;;;20.42;56.54;97160.46;1547417;92;25936;-78
2022/05/13 09:52:35;;;;;;;7.20;4.22;;;;;;;20.30;56.44;97167.33;1547344;91;28128;-77
2022/05/13 09:55:28;;;;;;;10.88;5.15;;;;;;;20.23;56.44;97162.16;1547512;91;25937;-76
2022/05/13 09:58:00;;;;;;;7.45;4.65;;;;;;;20.17;56.34;97160.52;1547460;92;25890;-76
2022/05/13 10:00:31;;;;;;;11.40;5.37;;;;;;;20.07;56.45;97155.06;1547383;92;26016;-76
2022/05/13 10:03:18;;;;;;;10.25;4.90;;;;;;;20.15;56.60;97151.78;1524020;94;26135;-76
2022/05/13 10:06:11;;;;;;;7.22;4.40;;;;;;;20.25;56.68;97150.37;1458601;97;27684;-77
2022/05/13 10:13:57;;;;;;;7.80;4.30;;;;;;;20.29;56.62;97147.31;1456895;98;25920;-78
2022/05/13 10:14:31;;;;;;;5.22;4.42;;;;;;;20.46;56.70;97142.36;1455015;98;26136;-72
2022/05/13 10:17:06;;;;;;;7.15;4.80;;;;;;;20.64;56.46;97140.10;1455291;98;25774;-76
2022/05/13 10:19:46;;;;;;;8.15;4.47;;;;;;;20.79;56.20;97142.73;1458259;96;27554;-78
2022/05/13 10:22:27;;;;;;;9.68;4.67;;;;;;;20.91;55.68;97148.70;1460890;98;25925;-76
2022/05/13 10:25:03;;;;;;;7.42;4.62;;;;;;;20.97;55.32;97143.47;1461112;98;25840;-77
2022/05/13 10:27:53;;;;;;;7.03;4.62;;;;;;;21.03;55.43;97136.83;1465713;96;25897;-78
2022/05/13 10:30:47;;;;;;;8.23;4.53;;;;;;;21.16;55.84;97123.84;1473998;96;25930;-79
2022/05/13 10:33:46;;;;;;;6.95;4.70;;;;;;;21.43;55.51;97119.82;1454428;97;28335;-77
2022/05/13 10:36:21;;;;;;;12.00;4.90;;;;;;;21.62;54.88;97118.54;1495187;95;25814;-81
2022/05/13 10:39:05;;;;;;;6.80;4.20;;;;;;;21.68;54.65;97129.20;1473270;97;25833;-77
2022/05/13 10:41:46;;;;;;;7.37;4.42;;;;;;;21.68;54.12;97123.72;1472637;96;26017;-79
2022/05/13 10:44:43;;;;;;;6.15;3.83;;;;;;;21.71;53.97;97117.66;1473467;97;25873;-76
2022/05/13 10:47:20;;;;;;;7.10;4.10;;;;;;;21.83;53.49;97114.52;1471546;96;27461;-78
2022/05/13 10:49:47;;;;;;;6.80;4.03;;;;;;;21.81;53.20;97096.12;1426657;99;25891;-79
2022/05/13 10:52:48;;;;;;;8.60;4.08;;;;;;;21.70;53.25;97073.44;1425587;99;25452;-78
2022/05/13 10:55:37;;;;;;;5.17;4.10;;;;;;;21.92;53.72;97090.22;1424313;100;26019;-80
2022/05/13 10:58:35;;;;;;;6.53;4.33;;;;;;;22.20;53.17;97100.12;1397983;101;26056;-78
2022/05/13 11:01:16;;;;;;;6.65;3.90;;;;;;;22.22;52.79;97097.87;1410973;100;28266;-78
2022/05/13 11:03:53;;;;;;;6.33;4.00;;;;;;;22.16;52.80;97085.31;1464396;96;25899;-78
2022/05/13 11:07:06;;;;;;;5.85;4.00;;;;;;;22.12;52.04;97073.25;1501843;95;25877;-79
2022/05/13 11:10:08;;;;;;;7.50;4.00;;;;;;;22.33;51.77;97096.66;1513091;92;26771;-78
2022/05/13 11:13:06;;;;;;;10.10;3.67;;;;;;;22.21;51.31;97090.20;1560132;90;25731;-78
2022/05/13 11:15:56;;;;;;;9.43;4.50;;;;;;;22.13;51.82;97088.64;1527796;93;27629;-79
2022/05/13 11:19:05;;;;;;;7.83;4.15;;;;;;;22.27;52.03;97076.64;1460469;96;25574;-80
2022/05/13 11:21:45;;;;;;;7.53;3.58;;;;;;;22.42;51.78;97071.52;1433056;99;25392;-79
2022/05/13 11:27:56;;;;;;;7.28;3.65;;;;;;;22.54;51.49;97064.20;1395879;101;25987;-78
2022/05/13 11:30:43;;;;;;;11.35;4.50;;;;;;;22.48;50.91;97068.12;1362929;105;26950;-77
2022/05/13 11:33:29;;;;;;;6.20;4.15;;;;;;;22.24;50.77;97062.66;1352984;104;26175;-77
2022/05/13 11:36:22;;;;;;;9.08;4.40;;;;;;;22.13;50.73;97056.47;1340709;105;25886;-78
2022/05/13 11:39:11;;;;;;;7.05;4.17;;;;;;;22.23;50.99;97061.02;1347017;104;26146;-80
2022/05/13 11:42:04;;;;;;;5.75;4.50;;;;;;;22.33;50.50;97060.91;1354112;105;25909;-77
2022/05/13 11:44:57;;;;;;;9.85;3.92;;;;;;;22.22;50.44;97031.89;1352520;105;27462;-78
2022/05/13 11:47:56;;;;;;;5.80;3.72;;;;;;;22.34;50.60;97050.73;1389470;101;26022;-80
2022/05/13 11:50:18;;;;;;;8.48;3.95;;;;;;;22.04;50.54;97024.44;1393577;101;25967;-78
2022/05/13 11:52:48;;;;;;;5.95;3.75;;;;;;;22.09;50.44;97042.26;1383622;102;26058;-77
2022/05/13 11:55:32;;;;;;;11.45;4.20;;;;;;;22.06;50.54;97042.84;1385420;103;25584;-79
2022/05/13 11:57:59;;;;;;;6.83;4.30;;;;;;;22.06;50.54;97042.84;1406960;101;28340;-79
2022/05/13 12:00:36;;;;;;;8.03;4.70;;;;;;;22.13;50.31;97033.66;1409392;101;25810;-77
2022/05/13 12:03:14;;;;;;;6.00;3.90;;;;;;;22.18;50.07;97038.55;1409657;100;25909;-76
2022/05/13 12:06:01;;;;;;;7.70;3.65;;;;;;;22.21;50.28;97034.41;1409801;101;25998;-76
2022/05/13 12:08:48;;;;;;;7.55;4.10;;;;;;;22.15;50.00;97028.70;1388906;103;26112;-77
2022/05/13 12:11:32;;;;;;;7.90;4.62;;;;;;;21.99;50.25;97012.95;1387151;103;27490;-77
2022/05/13 12:14:21;;;;;;;10.78;4.40;;;;;;;21.98;50.95;97009.91;1343854;104;25964;-77
2022/05/13 12:17:05;;;;;;;5.35;3.98;;;;;;;22.06;50.76;97016.73;1339099;107;25918;-79
2022/05/13 12:20:14;;;;;;;10.10;4.78;;;;;;;22.16;50.79;97006.41;1320743;108;26014;-76
2022/05/13 12:23:00;;;;;;;10.82;4.92;;;;;;;22.23;50.43;97003.29;1345633;104;25937;-77
2022/05/13 12:25:35;;;;;;;4.70;3.55;;;;;;;22.16;50.14;97000.91;1344552;104;28232;-77
2022/05/13 12:28:08;;;;;;;6.45;3.90;;;;;;;22.16;50.51;96991.85;1345687;104;25860;-74
2022/05/13 12:30:41;;;;;;;7.10;4.00;;;;;;;22.13;50.42;96996.56;1348017;104;25888;-76
2022/05/13 12:33:28;;;;;;;8.60;4.08;;;;;;;21.66;50.27;96980.35;1328946;107;26176;-79